createdAt,value
2022-10-28T00:02:34.270Z,10.80
2022-10-28T00:08:02.081Z,10.80
2022-10-28T00:13:30.102Z,10.70
2022-10-28T00:19:02.382Z,10.60
2022-10-28T00:24:30.386Z,10.50
2022-10-28T00:29:58.303Z,10.50
2022-10-28T00:35:26.125Z,10.40
2022-10-28T00:40:54.017Z,10.40
2022-10-28T00:46:41.045Z,10.30
2022-10-28T00:52:16.466Z,10.30
2022-10-28T00:57:46.108Z,10.30
2022-10-28T01:03:14.046Z,10.30
2022-10-28T01:08:41.861Z,10.20
2022-10-28T01:14:30.844Z,10.10
2022-10-28T01:20:36.072Z,10.10
2022-10-28T01:26:19.585Z,10.10
2022-10-28T01:31:56.304Z,10.10
2022-10-28T01:38:15.220Z,10.10
2022-10-28T01:44:10.250Z,10.20
2022-10-28T01:50:25.454Z,10.20
2022-10-28T01:55:59.823Z,10.20
2022-10-28T02:01:30.391Z,10.20
2022-10-28T02:07:00.749Z,10.20
2022-10-28T02:12:38.514Z,10.30
2022-10-28T02:19:07.264Z,10.20
2022-10-28T02:25:13.578Z,10.20
2022-10-28T02:30:52.061Z,10.10
2022-10-28T02:36:23.362Z,10.10
2022-10-28T02:42:14.161Z,10.10
2022-10-28T02:47:50.138Z,10.00
2022-10-28T02:58:59.966Z,10.00
2022-10-28T03:04:27.861Z,10.00
2022-10-28T03:09:55.633Z,10.00
2022-10-28T03:15:23.470Z,10.00
2022-10-28T03:20:54.288Z,10.00
2022-10-28T03:26:24.546Z,9.90
2022-10-28T03:31:52.420Z,9.90
2022-10-28T03:37:20.341Z,9.90
2022-10-28T03:42:48.154Z,9.90
2022-10-28T03:48:15.977Z,9.90
2022-10-28T03:53:43.760Z,9.90
2022-10-28T03:59:13.227Z,9.90
2022-10-28T04:04:43.021Z,10.00
2022-10-28T04:10:12.015Z,10.00
2022-10-28T04:15:39.810Z,10.00
2022-10-28T04:21:08.091Z,10.00
2022-10-28T04:26:35.858Z,10.00
2022-10-28T04:32:03.864Z,10.10
2022-10-28T04:37:31.624Z,10.10
2022-10-28T04:42:59.442Z,10.10
2022-10-28T04:48:27.400Z,10.10
2022-10-28T04:53:55.343Z,10.10
2022-10-28T04:59:23.231Z,10.10
2022-10-28T05:04:51.003Z,10.10
2022-10-28T05:10:18.759Z,10.10
2022-10-28T05:15:49.423Z,10.10
2022-10-28T05:21:17.550Z,10.10
2022-10-28T05:26:45.505Z,10.10
2022-10-28T05:32:13.387Z,10.10
2022-10-28T05:37:41.181Z,10.10
2022-10-28T05:43:10.470Z,10.20
2022-10-28T05:48:38.644Z,10.20
2022-10-28T05:54:06.481Z,10.20
2022-10-28T05:59:34.287Z,10.30
2022-10-28T06:05:02.172Z,10.30
2022-10-28T06:10:29.957Z,10.30
2022-10-28T06:15:56.493Z,10.50
2022-10-28T06:21:24.380Z,10.60
2022-10-28T06:26:52.220Z,10.70
2022-10-28T06:32:20.141Z,10.90
2022-10-28T06:37:53.416Z,11.10
2022-10-28T06:43:21.489Z,11.20
2022-10-28T06:48:50.881Z,11.30
2022-10-28T06:54:20.923Z,11.50
2022-10-28T06:59:50.136Z,11.60
2022-10-28T07:05:17.957Z,11.80
2022-10-28T07:10:57.354Z,11.90
2022-10-28T07:16:25.221Z,12.10
2022-10-28T07:21:52.925Z,12.30
2022-10-28T07:27:20.874Z,12.60
2022-10-28T07:32:48.971Z,12.70
2022-10-28T07:38:16.804Z,13.00
2022-10-28T07:43:44.583Z,13.30
2022-10-28T07:49:12.347Z,13.60
2022-10-28T07:54:40.157Z,13.90
2022-10-28T08:00:08.589Z,14.20
2022-10-28T08:05:39.225Z,14.50
2022-10-28T08:11:19.798Z,14.90
2022-10-28T08:16:47.626Z,15.30
2022-10-28T08:22:15.641Z,15.80
2022-10-28T08:27:43.487Z,16.20
2022-10-28T08:33:11.688Z,16.70
2022-10-28T08:38:45.166Z,17.10
2022-10-28T08:45:04.658Z,17.60
2022-10-28T08:50:40.636Z,18.20
2022-10-28T08:56:30.792Z,18.60
2022-10-28T09:02:22.657Z,18.80
2022-10-28T09:07:52.009Z,19.00
2022-10-28T09:13:34.554Z,19.00
2022-10-28T09:19:38.637Z,19.10
2022-10-28T09:25:25.952Z,19.20
2022-10-28T09:31:02.985Z,19.30
2022-10-28T09:36:53.635Z,19.40
2022-10-28T09:42:28.046Z,19.50
2022-10-28T09:48:17.163Z,19.50
2022-10-28T09:53:56.952Z,19.60
2022-10-28T09:59:25.055Z,19.90
2022-10-28T10:04:58.979Z,20.00
2022-10-28T10:11:03.819Z,20.30
2022-10-28T10:16:39.959Z,20.70
2022-10-28T10:22:07.729Z,21.10
2022-10-28T10:27:35.514Z,21.50
2022-10-28T10:33:04.286Z,22.00
2022-10-28T10:38:33.129Z,22.40
2022-10-28T10:44:01.047Z,22.80
2022-10-28T10:49:31.093Z,23.30
2022-10-28T10:55:05.734Z,23.50
2022-10-28T11:00:39.376Z,23.90
2022-10-28T11:06:28.136Z,24.00
2022-10-28T11:11:56.427Z,24.00
2022-10-28T11:23:46.229Z,23.80
2022-10-28T11:29:17.595Z,23.70
2022-10-28T11:35:28.276Z,23.70
2022-10-28T11:41:30.939Z,24.00
2022-10-28T11:47:14.613Z,24.20
2022-10-28T11:53:05.341Z,24.40
2022-10-28T11:59:02.083Z,24.70
2022-10-28T12:05:09.238Z,24.70
2022-10-28T12:10:43.221Z,25.00
2022-10-28T12:16:58.730Z,25.10
2022-10-28T12:22:50.475Z,25.30
2022-10-28T12:28:54.237Z,25.60
2022-10-28T12:34:32.947Z,25.70
2022-10-28T12:40:29.822Z,25.90
2022-10-28T12:45:58.450Z,26.10
2022-10-28T12:51:34.474Z,26.10
2022-10-28T12:57:14.899Z,26.20
2022-10-28T13:03:10.333Z,26.60
2022-10-28T13:08:49.233Z,27.10
2022-10-28T13:21:34.988Z,27.40
2022-10-28T13:27:05.948Z,27.40
2022-10-28T13:32:38.829Z,27.90
2022-10-28T13:38:12.302Z,29.70
2022-10-28T13:43:50.305Z,31.30
2022-10-28T13:49:28.236Z,32.50
2022-10-28T13:55:00.786Z,33.20
2022-10-28T14:06:01.803Z,33.60
2022-10-28T14:11:32.477Z,33.80
2022-10-28T14:17:00.322Z,33.20
2022-10-28T14:22:35.068Z,32.90
2022-10-28T14:28:32.839Z,32.60
2022-10-28T14:34:00.592Z,31.90
2022-10-28T14:40:02.443Z,31.60
2022-10-28T14:45:41.006Z,31.70
2022-10-28T14:51:16.120Z,31.30
2022-10-28T14:56:45.358Z,30.20
2022-10-28T15:02:27.852Z,29.10
2022-10-28T15:07:58.240Z,28.20
2022-10-28T15:13:26.779Z,27.50
2022-10-28T15:18:54.949Z,26.80
2022-10-28T15:24:22.830Z,26.20
2022-10-28T15:29:51.463Z,25.60
2022-10-28T15:35:32.875Z,25.00
2022-10-28T15:41:00.950Z,24.40
2022-10-28T15:46:32.605Z,23.90
2022-10-28T15:52:18.797Z,23.40
2022-10-28T15:58:03.134Z,22.90
2022-10-28T16:03:40.238Z,22.40
2022-10-28T16:09:14.305Z,22.00
2022-10-28T16:14:49.341Z,21.60
2022-10-28T16:20:27.728Z,21.20
2022-10-28T16:25:55.684Z,20.80
2022-10-28T16:31:28.529Z,20.50
2022-10-28T16:36:56.472Z,20.20
2022-10-28T16:42:24.987Z,19.90
2022-10-28T16:47:53.218Z,19.60
2022-10-28T16:53:21.416Z,19.40
2022-10-28T16:58:49.409Z,19.20
2022-10-28T17:04:17.213Z,19.00
2022-10-28T17:09:47.788Z,18.80
2022-10-28T17:15:15.798Z,18.60
2022-10-28T17:20:43.766Z,18.40
2022-10-28T17:26:11.725Z,18.30
2022-10-28T17:31:39.565Z,18.10
2022-10-28T17:37:07.948Z,18.00
2022-10-28T17:42:35.934Z,17.80
2022-10-28T17:48:04.247Z,17.70
2022-10-28T17:53:32.376Z,17.50
2022-10-28T17:59:04.357Z,17.40
2022-10-28T18:04:33.263Z,17.30
2022-10-28T18:10:01.048Z,17.20
2022-10-28T18:15:28.920Z,17.20
2022-10-28T18:20:57.914Z,17.10
2022-10-28T18:26:25.644Z,17.00
2022-10-28T18:31:53.477Z,16.90
2022-10-28T18:37:22.068Z,16.80
2022-10-28T18:42:50.116Z,16.80
2022-10-28T18:48:18.652Z,16.70
2022-10-28T18:53:48.499Z,16.70
2022-10-28T18:59:16.528Z,16.60
2022-10-28T19:04:44.495Z,16.60
2022-10-28T19:10:12.525Z,16.60
2022-10-28T19:15:47.382Z,16.50
2022-10-28T19:21:16.757Z,16.50
2022-10-28T19:26:44.525Z,16.50
2022-10-28T19:32:12.280Z,16.40
2022-10-28T19:37:40.154Z,16.40
2022-10-28T19:43:08.141Z,16.40
2022-10-28T19:48:36.570Z,16.40
2022-10-28T19:54:12.129Z,16.30
2022-10-28T19:59:39.952Z,16.30
2022-10-28T20:05:08.228Z,16.30
2022-10-28T20:10:36.026Z,16.20
2022-10-28T20:16:10.660Z,16.20
2022-10-28T20:21:39.378Z,16.20
2022-10-28T20:27:07.342Z,16.10
2022-10-28T20:32:36.416Z,16.00
2022-10-28T20:38:04.267Z,16.00
2022-10-28T20:43:32.136Z,16.00
2022-10-28T20:49:01.002Z,16.00
2022-10-28T20:54:28.780Z,16.00
2022-10-28T20:59:56.630Z,15.90
2022-10-28T21:05:24.446Z,16.00
2022-10-28T21:10:52.423Z,15.80
2022-10-28T21:16:21.730Z,15.80
2022-10-28T21:21:49.626Z,15.80
2022-10-28T21:27:17.404Z,15.60
2022-10-28T21:32:45.350Z,15.70
2022-10-28T21:38:13.185Z,15.70
2022-10-28T21:43:44.014Z,15.60
2022-10-28T21:49:11.896Z,15.60
2022-10-28T21:54:39.678Z,15.60
2022-10-28T22:00:08.834Z,15.70
2022-10-28T22:05:50.760Z,15.70
2022-10-28T22:11:21.428Z,15.80
2022-10-28T22:16:49.393Z,16.00
2022-10-28T22:22:17.160Z,16.10
2022-10-28T22:27:45.147Z,16.20
2022-10-28T22:33:13.077Z,16.30
2022-10-28T22:38:41.651Z,16.40
2022-10-28T22:44:09.597Z,16.40
2022-10-28T22:49:37.486Z,16.50
2022-10-28T22:55:05.899Z,16.60
2022-10-28T23:00:34.797Z,16.60
2022-10-28T23:06:02.845Z,16.60
2022-10-28T23:11:31.219Z,16.50
2022-10-28T23:16:59.841Z,16.50
2022-10-28T23:22:29.574Z,16.40
2022-10-28T23:27:57.949Z,16.30
2022-10-28T23:33:26.068Z,16.20
2022-10-28T23:38:57.079Z,16.00
2022-10-28T23:44:24.875Z,15.90
2022-10-28T23:49:53.059Z,15.70
2022-10-28T23:55:21.973Z,15.60
